Ince Atlantic — TCYW — position and weather

sailwx.info

Track history (hours):
 
Tides and Currents Weather Stations Pressure Air Temp Water Temp Dewpoint Dewpoint Depression Visibility Wind Speed Wind Dir Waves Ship Positions

Ince Atlantic

Last reported at 2017-Nov-16 03:37 UTC. Time now 2017-Dec-13 14:42 UTC.
Position N 30°44' E 032°20'.
Warning: this ship's position is 27 days out of date.

Length 186 m; draft 10.8 m.

Type: Cargo ship. MMSI: 271000620.

Date/timePositionNaut miles runAvg speedWind from/ knotsBaromVisibWave heightAir tempDewpointWater temp
2017-Nov-16 03:37N 30°44' E 032°20'3 9.4
2017-Nov-16 03:15N 30°48' E 032°19'2 8.9
2017-Nov-16 03:00N 30°50' E 032°19'  
2017-Nov-09 20:04N 44°26' E 037°29'212.0
2017-Nov-09 19:53N 44°27' E 037°31'511.9
2017-Nov-09 19:30N 44°30' E 037°36'611.4
2017-Nov-09 19:01N 44°33' E 037°43'511.0
2017-Nov-09 18:31N 44°37' E 037°48'4 7.4
2017-Nov-09 18:01N 44°40' E 037°50'0 0.9
2017-Nov-09 17:30N 44°41' E 037°50'0 0.0
2017-Nov-09 17:00N 44°41' E 037°50'0 0.0
2017-Nov-09 16:30N 44°41' E 037°50'0 0.0
2017-Nov-09 16:00N 44°41' E 037°50'0 0.0
2017-Nov-09 15:30N 44°41' E 037°50'0 0.1
2017-Nov-09 15:00N 44°41' E 037°50'0 0.1
2017-Nov-09 14:30N 44°41' E 037°51'0 0.0
2017-Nov-09 13:57N 44°41' E 037°51'0 0.0
2017-Nov-09 13:30N 44°41' E 037°51'0 0.0
2017-Nov-09 13:00N 44°41' E 037°51'0 0.0
2017-Nov-09 12:30N 44°41' E 037°51'0 0.1
2017-Nov-09 11:57N 44°41' E 037°51'0 0.2
2017-Nov-09 11:30N 44°41' E 037°51'0 1.0
2017-Nov-09 11:00N 44°41' E 037°50'2 4.7
2017-Nov-09 10:30N 44°43' E 037°48'1 1.6
2017-Nov-09 09:58N 44°44' E 037°47'0 0.1
2017-Nov-09 09:28N 44°44' E 037°47'0 0.0
2017-Nov-09 08:58N 44°44' E 037°47'0 0.0
2017-Nov-09 08:28N 44°44' E 037°47'0 0.0
2017-Nov-09 07:58N 44°44' E 037°47'0 0.0
2017-Nov-09 07:28N 44°44' E 037°47'0 0.0
2017-Nov-09 06:58N 44°44' E 037°47'0 0.0
2017-Nov-09 06:28N 44°44' E 037°47'0 0.0
2017-Nov-09 05:58N 44°44' E 037°47'0 0.0
2017-Nov-09 05:28N 44°44' E 037°47'0 0.0
2017-Nov-09 04:58N 44°44' E 037°47'0 0.0
2017-Nov-09 04:28N 44°44' E 037°47'0 0.0
2017-Nov-09 03:58N 44°44' E 037°47'0 0.0
2017-Nov-09 03:28N 44°44' E 037°47'0 0.0
2017-Nov-09 02:58N 44°44' E 037°47'0 0.0
2017-Nov-09 02:28N 44°44' E 037°47'0 0.0
2017-Nov-09 01:58N 44°44' E 037°47'0 0.0
2017-Nov-09 01:28N 44°44' E 037°47'0 0.0
2017-Nov-09 00:58N 44°44' E 037°47'0 0.0
2017-Nov-09 00:28N 44°44' E 037°47'0 0.0
2017-Nov-08 23:58N 44°44' E 037°47'0 0.0
2017-Nov-08 23:25N 44°44' E 037°47'0 0.0
2017-Nov-08 22:58N 44°44' E 037°47'0 0.0
2017-Nov-08 22:28N 44°44' E 037°47'0 0.0
2017-Nov-08 21:58N 44°44' E 037°47'0 0.0
2017-Nov-08 21:28N 44°44' E 037°47'0 0.0
2017-Nov-08 20:58N 44°44' E 037°47'0 0.0
2017-Nov-08 20:28N 44°44' E 037°47'0 0.0
2017-Nov-08 19:58N 44°44' E 037°47'0 0.0
2017-Nov-08 19:28N 44°44' E 037°47'0 0.0
2017-Nov-08 18:58N 44°44' E 037°47'0 0.0
2017-Nov-08 18:28N 44°44' E 037°47'0 0.0
2017-Nov-08 17:58N 44°44' E 037°47'0 0.0
2017-Nov-08 17:28N 44°44' E 037°47'0 0.0
2017-Nov-08 16:58N 44°44' E 037°47'0 0.0
2017-Nov-08 16:28N 44°44' E 037°47'0 0.0
2017-Nov-08 15:58N 44°44' E 037°47'0 0.0
2017-Nov-08 15:28N 44°44' E 037°47'0 0.0
2017-Nov-08 14:58N 44°44' E 037°47'0 0.0
2017-Nov-08 14:28N 44°44' E 037°47'0 0.0
2017-Nov-08 13:58N 44°44' E 037°47'0 0.0
2017-Nov-08 13:28N 44°44' E 037°47'0 0.0
2017-Nov-08 12:58N 44°44' E 037°47'0 0.0
2017-Nov-08 12:28N 44°44' E 037°47'0 0.0
2017-Nov-08 11:58N 44°44' E 037°47'0 0.0
2017-Nov-08 11:28N 44°44' E 037°47'0 0.0
2017-Nov-08 10:58N 44°44' E 037°47'0 0.0
2017-Nov-08 10:28N 44°44' E 037°47'0 0.0
2017-Nov-08 09:58N 44°44' E 037°47'0 0.0
2017-Nov-08 09:28N 44°44' E 037°47'0 0.0
2017-Nov-08 08:58N 44°44' E 037°47'0 0.0
2017-Nov-08 08:28N 44°44' E 037°47'0 0.0
2017-Nov-08 07:58N 44°44' E 037°47'0 0.0
2017-Nov-08 07:28N 44°44' E 037°47'0 0.0
2017-Nov-08 06:58N 44°44' E 037°47'0 0.0
2017-Nov-08 06:28N 44°44' E 037°47'0 0.0
2017-Nov-08 05:58N 44°44' E 037°47'0 0.0
2017-Nov-08 05:28N 44°44' E 037°47'0 0.0
2017-Nov-08 04:58N 44°44' E 037°47'0 0.0
2017-Nov-08 04:28N 44°44' E 037°47'0 0.0
2017-Nov-08 03:58N 44°44' E 037°47'0 0.0
2017-Nov-08 03:28N 44°44' E 037°47'0 0.0
2017-Nov-08 02:58N 44°44' E 037°47'0 0.0
2017-Nov-08 02:28N 44°44' E 037°47'0 0.0
2017-Nov-08 01:58N 44°44' E 037°47'0 0.0
2017-Nov-08 01:28N 44°44' E 037°47'0 0.0
2017-Nov-08 00:58N 44°44' E 037°47'0 0.0
2017-Nov-08 00:28N 44°44' E 037°47'0 0.0
2017-Nov-07 23:58N 44°44' E 037°47'0 0.0
2017-Nov-07 23:28N 44°44' E 037°47'0 0.0
2017-Nov-07 22:58N 44°44' E 037°47'0 0.0
2017-Nov-07 22:28N 44°44' E 037°47'0 0.0
2017-Nov-07 21:58N 44°44' E 037°47'0 0.0
2017-Nov-07 21:28N 44°44' E 037°47'0 0.0
2017-Nov-07 20:58N 44°44' E 037°47'0 0.0
2017-Nov-07 20:28N 44°44' E 037°47'0 0.0
2017-Nov-07 19:58N 44°44' E 037°47'0 0.0
2017-Nov-07 19:28N 44°44' E 037°47'0 0.0
2017-Nov-07 18:58N 44°44' E 037°47'0 0.0
2017-Nov-07 18:28N 44°44' E 037°47'0 0.0
2017-Nov-07 17:58N 44°44' E 037°47'0 0.0
2017-Nov-07 16:58N 44°44' E 037°47'0 0.0
2017-Nov-07 16:28N 44°44' E 037°47'0 0.0
2017-Nov-07 15:58N 44°44' E 037°47'0 0.0
2017-Nov-07 15:22N 44°44' E 037°47'0 0.0
2017-Nov-07 14:58N 44°44' E 037°47'0 0.0
2017-Nov-07 14:28N 44°44' E 037°47'0 0.0
2017-Nov-07 13:58N 44°44' E 037°47'0 0.0
2017-Nov-07 13:28N 44°44' E 037°47'0 0.0
2017-Nov-07 12:58N 44°44' E 037°47'0 0.0
2017-Nov-07 12:28N 44°44' E 037°47'0 0.0
2017-Nov-07 11:58N 44°44' E 037°47'0 0.0
2017-Nov-07 11:22N 44°44' E 037°47'0 0.0
2017-Nov-07 10:58N 44°44' E 037°47'0 0.0
2017-Nov-07 10:28N 44°44' E 037°47'0 0.0
2017-Nov-07 09:58N 44°44' E 037°47'0 0.0
2017-Nov-07 09:28N 44°44' E 037°47'0 0.0
2017-Nov-07 08:58N 44°44' E 037°47'0 0.0
2017-Nov-07 08:28N 44°44' E 037°47'0 0.0
2017-Nov-07 07:58N 44°44' E 037°47'0 0.0
2017-Nov-07 07:29N 44°44' E 037°47'0 0.7
2017-Nov-07 07:01N 44°44' E 037°48'3 5.5
2017-Nov-07 06:31N 44°42' E 037°50'1 1.2
2017-Nov-07 06:01N 44°41' E 037°51'0 0.0
2017-Nov-07 05:31N 44°41' E 037°51'0 0.0
2017-Nov-07 05:01N 44°41' E 037°51'0 0.0
2017-Nov-07 04:31N 44°41' E 037°51'0 0.0
2017-Nov-07 04:00N 44°41' E 037°51'0 0.1
2017-Nov-07 03:31N 44°41' E 037°51'0 0.0
2017-Nov-07 03:01N 44°41' E 037°51'0 0.1
2017-Nov-07 02:31N 44°41' E 037°51'0 0.2
2017-Nov-07 02:01N 44°41' E 037°51'0 0.1
2017-Nov-07 01:31N 44°41' E 037°51'0 0.1
2017-Nov-07 01:01N 44°41' E 037°51'0 0.0
2017-Nov-07 00:31N 44°41' E 037°51'0 0.0
2017-Nov-07 00:01N 44°41' E 037°51'0 0.0
2017-Nov-06 23:31N 44°41' E 037°51'0 0.0
2017-Nov-06 23:01N 44°41' E 037°51'0 0.0
2017-Nov-06 22:31N 44°41' E 037°51'0 0.0
2017-Nov-06 22:01N 44°41' E 037°51'0 0.0
2017-Nov-06 21:31N 44°41' E 037°51'0 0.0
2017-Nov-06 21:01N 44°41' E 037°51'0 0.1
2017-Nov-06 20:31N 44°41' E 037°51'  
Track history (hours):
 
Tides and Currents Weather Stations Pressure Air Temp Water Temp Dewpoint Dewpoint Depression Visibility Wind Speed Wind Dir Waves Ship Positions

Ince Atlantic

Last reported at 2017-Nov-16 03:37 UTC. Time now 2017-Dec-13 14:42 UTC.
Position N 30°44' E 032°20'.
Warning: this ship's position is 27 days out of date.

Length 186 m; draft 10.8 m.

Type: Cargo ship. MMSI: 271000620.

Date/timePositionNaut miles runAvg speedWind from/ knotsBaromVisibWave heightAir tempDewpointWater temp
2017-Nov-16 03:37N 30°44' E 032°20'3 9.4
2017-Nov-16 03:15N 30°48' E 032°19'2 8.9
2017-Nov-16 03:00N 30°50' E 032°19'  
2017-Nov-09 20:04N 44°26' E 037°29'212.0
2017-Nov-09 19:53N 44°27' E 037°31'511.9
2017-Nov-09 19:30N 44°30' E 037°36'611.4
2017-Nov-09 19:01N 44°33' E 037°43'511.0
2017-Nov-09 18:31N 44°37' E 037°48'4 7.4
2017-Nov-09 18:01N 44°40' E 037°50'0 0.9
2017-Nov-09 17:30N 44°41' E 037°50'0 0.0
2017-Nov-09 17:00N 44°41' E 037°50'0 0.0
2017-Nov-09 16:30N 44°41' E 037°50'0 0.0
2017-Nov-09 16:00N 44°41' E 037°50'0 0.0
2017-Nov-09 15:30N 44°41' E 037°50'0 0.1
2017-Nov-09 15:00N 44°41' E 037°50'0 0.1
2017-Nov-09 14:30N 44°41' E 037°51'0 0.0
2017-Nov-09 13:57N 44°41' E 037°51'0 0.0
2017-Nov-09 13:30N 44°41' E 037°51'0 0.0
2017-Nov-09 13:00N 44°41' E 037°51'0 0.0
2017-Nov-09 12:30N 44°41' E 037°51'0 0.1
2017-Nov-09 11:57N 44°41' E 037°51'0 0.2
2017-Nov-09 11:30N 44°41' E 037°51'0 1.0
2017-Nov-09 11:00N 44°41' E 037°50'2 4.7
2017-Nov-09 10:30N 44°43' E 037°48'1 1.6
2017-Nov-09 09:58N 44°44' E 037°47'0 0.1
2017-Nov-09 09:28N 44°44' E 037°47'0 0.0
2017-Nov-09 08:58N 44°44' E 037°47'0 0.0
2017-Nov-09 08:28N 44°44' E 037°47'0 0.0
2017-Nov-09 07:58N 44°44' E 037°47'0 0.0
2017-Nov-09 07:28N 44°44' E 037°47'0 0.0
2017-Nov-09 06:58N 44°44' E 037°47'0 0.0
2017-Nov-09 06:28N 44°44' E 037°47'0 0.0
2017-Nov-09 05:58N 44°44' E 037°47'0 0.0
2017-Nov-09 05:28N 44°44' E 037°47'0 0.0
2017-Nov-09 04:58N 44°44' E 037°47'0 0.0
2017-Nov-09 04:28N 44°44' E 037°47'0 0.0
2017-Nov-09 03:58N 44°44' E 037°47'0 0.0
2017-Nov-09 03:28N 44°44' E 037°47'0 0.0
2017-Nov-09 02:58N 44°44' E 037°47'0 0.0
2017-Nov-09 02:28N 44°44' E 037°47'0 0.0
2017-Nov-09 01:58N 44°44' E 037°47'0 0.0
2017-Nov-09 01:28N 44°44' E 037°47'0 0.0
2017-Nov-09 00:58N 44°44' E 037°47'0 0.0
2017-Nov-09 00:28N 44°44' E 037°47'0 0.0
2017-Nov-08 23:58N 44°44' E 037°47'0 0.0
2017-Nov-08 23:25N 44°44' E 037°47'0 0.0
2017-Nov-08 22:58N 44°44' E 037°47'0 0.0
2017-Nov-08 22:28N 44°44' E 037°47'0 0.0
2017-Nov-08 21:58N 44°44' E 037°47'0 0.0
2017-Nov-08 21:28N 44°44' E 037°47'0 0.0
2017-Nov-08 20:58N 44°44' E 037°47'0 0.0
2017-Nov-08 20:28N 44°44' E 037°47'0 0.0
2017-Nov-08 19:58N 44°44' E 037°47'0 0.0
2017-Nov-08 19:28N 44°44' E 037°47'0 0.0
2017-Nov-08 18:58N 44°44' E 037°47'0 0.0
2017-Nov-08 18:28N 44°44' E 037°47'0 0.0
2017-Nov-08 17:58N 44°44' E 037°47'0 0.0
2017-Nov-08 17:28N 44°44' E 037°47'0 0.0
2017-Nov-08 16:58N 44°44' E 037°47'0 0.0
2017-Nov-08 16:28N 44°44' E 037°47'0 0.0
2017-Nov-08 15:58N 44°44' E 037°47'0 0.0
2017-Nov-08 15:28N 44°44' E 037°47'0 0.0
2017-Nov-08 14:58N 44°44' E 037°47'0 0.0
2017-Nov-08 14:28N 44°44' E 037°47'0 0.0
2017-Nov-08 13:58N 44°44' E 037°47'0 0.0
2017-Nov-08 13:28N 44°44' E 037°47'0 0.0
2017-Nov-08 12:58N 44°44' E 037°47'0 0.0
2017-Nov-08 12:28N 44°44' E 037°47'0 0.0
2017-Nov-08 11:58N 44°44' E 037°47'0 0.0
2017-Nov-08 11:28N 44°44' E 037°47'0 0.0
2017-Nov-08 10:58N 44°44' E 037°47'0 0.0
2017-Nov-08 10:28N 44°44' E 037°47'0 0.0
2017-Nov-08 09:58N 44°44' E 037°47'0 0.0
2017-Nov-08 09:28N 44°44' E 037°47'0 0.0
2017-Nov-08 08:58N 44°44' E 037°47'0 0.0
2017-Nov-08 08:28N 44°44' E 037°47'0 0.0
2017-Nov-08 07:58N 44°44' E 037°47'0 0.0
2017-Nov-08 07:28N 44°44' E 037°47'0 0.0
2017-Nov-08 06:58N 44°44' E 037°47'0 0.0
2017-Nov-08 06:28N 44°44' E 037°47'0 0.0
2017-Nov-08 05:58N 44°44' E 037°47'0 0.0
2017-Nov-08 05:28N 44°44' E 037°47'0 0.0
2017-Nov-08 04:58N 44°44' E 037°47'0 0.0
2017-Nov-08 04:28N 44°44' E 037°47'0 0.0
2017-Nov-08 03:58N 44°44' E 037°47'0 0.0
2017-Nov-08 03:28N 44°44' E 037°47'0 0.0
2017-Nov-08 02:58N 44°44' E 037°47'0 0.0
2017-Nov-08 02:28N 44°44' E 037°47'0 0.0
2017-Nov-08 01:58N 44°44' E 037°47'0 0.0
2017-Nov-08 01:28N 44°44' E 037°47'0 0.0
2017-Nov-08 00:58N 44°44' E 037°47'0 0.0
2017-Nov-08 00:28N 44°44' E 037°47'0 0.0
2017-Nov-07 23:58N 44°44' E 037°47'0 0.0
2017-Nov-07 23:28N 44°44' E 037°47'0 0.0
2017-Nov-07 22:58N 44°44' E 037°47'0 0.0
2017-Nov-07 22:28N 44°44' E 037°47'0 0.0
2017-Nov-07 21:58N 44°44' E 037°47'0 0.0
2017-Nov-07 21:28N 44°44' E 037°47'0 0.0
2017-Nov-07 20:58N 44°44' E 037°47'0 0.0
2017-Nov-07 20:28N 44°44' E 037°47'0 0.0
2017-Nov-07 19:58N 44°44' E 037°47'0 0.0
2017-Nov-07 19:28N 44°44' E 037°47'0 0.0
2017-Nov-07 18:58N 44°44' E 037°47'0 0.0
2017-Nov-07 18:28N 44°44' E 037°47'0 0.0
2017-Nov-07 17:58N 44°44' E 037°47'0 0.0
2017-Nov-07 16:58N 44°44' E 037°47'0 0.0
2017-Nov-07 16:28N 44°44' E 037°47'0 0.0
2017-Nov-07 15:58N 44°44' E 037°47'0 0.0
2017-Nov-07 15:22N 44°44' E 037°47'0 0.0
2017-Nov-07 14:58N 44°44' E 037°47'0 0.0
2017-Nov-07 14:28N 44°44' E 037°47'0 0.0
2017-Nov-07 13:58N 44°44' E 037°47'0 0.0
2017-Nov-07 13:28N 44°44' E 037°47'0 0.0
2017-Nov-07 12:58N 44°44' E 037°47'0 0.0
2017-Nov-07 12:28N 44°44' E 037°47'0 0.0
2017-Nov-07 11:58N 44°44' E 037°47'0 0.0
2017-Nov-07 11:22N 44°44' E 037°47'0 0.0
2017-Nov-07 10:58N 44°44' E 037°47'0 0.0
2017-Nov-07 10:28N 44°44' E 037°47'0 0.0
2017-Nov-07 09:58N 44°44' E 037°47'0 0.0
2017-Nov-07 09:28N 44°44' E 037°47'0 0.0
2017-Nov-07 08:58N 44°44' E 037°47'0 0.0
2017-Nov-07 08:28N 44°44' E 037°47'0 0.0
2017-Nov-07 07:58N 44°44' E 037°47'0 0.0
2017-Nov-07 07:29N 44°44' E 037°47'0 0.7
2017-Nov-07 07:01N 44°44' E 037°48'3 5.5
2017-Nov-07 06:31N 44°42' E 037°50'1 1.2
2017-Nov-07 06:01N 44°41' E 037°51'0 0.0
2017-Nov-07 05:31N 44°41' E 037°51'0 0.0
2017-Nov-07 05:01N 44°41' E 037°51'0 0.0
2017-Nov-07 04:31N 44°41' E 037°51'0 0.0
2017-Nov-07 04:00N 44°41' E 037°51'0 0.1
2017-Nov-07 03:31N 44°41' E 037°51'0 0.0
2017-Nov-07 03:01N 44°41' E 037°51'0 0.1
2017-Nov-07 02:31N 44°41' E 037°51'0 0.2
2017-Nov-07 02:01N 44°41' E 037°51'0 0.1
2017-Nov-07 01:31N 44°41' E 037°51'0 0.1
2017-Nov-07 01:01N 44°41' E 037°51'0 0.0
2017-Nov-07 00:31N 44°41' E 037°51'0 0.0
2017-Nov-07 00:01N 44°41' E 037°51'0 0.0
2017-Nov-06 23:31N 44°41' E 037°51'0 0.0
2017-Nov-06 23:01N 44°41' E 037°51'0 0.0
2017-Nov-06 22:31N 44°41' E 037°51'0 0.0
2017-Nov-06 22:01N 44°41' E 037°51'0 0.0
2017-Nov-06 21:31N 44°41' E 037°51'0 0.0
2017-Nov-06 21:01N 44°41' E 037°51'0 0.1
2017-Nov-06 20:31N 44°41' E 037°51'  

Dump ship's entire track history